Terminal Aerodrome Forecast
Issued by NWS Bismarck, ND

Home | Current Version | Previous Version | Text Only | Print | Product List | Glossary Off
Versions: 1 2 3 4 5 6 7 8 9 10 11 12 13 14

950
FTUS43 KBIS 241726
TAFBIS
TAF
KBIS 241726Z 2418/2518 16015G22KT P6SM FEW100 SCT200
     FM250200 14009KT P6SM FEW100 FEW250
     FM250600 06006KT P6SM FEW110 SCT250=

USA.gov is the U.S. government's official web portal to all federal, state and local government web resources and services.